Time;durP1;ratioP1;P1;durP2;ratioP2;P2;SDS_P1;SDS_P2;PMS_P1;PMS_P2;Temp;Humidity;BMP_temperature;BMP_pressure;BME280_temperature;BME280_humidity;BME280_pressure;Samples;Min_cycle;Max_cycle;Signal;HPM_P1;HPM_P2
2023/08/09 00:00:16;;;;;;;6.82;4.60;;;;;;;14.53;100.00;101049.47;5030440;28;20459;-61
2023/08/09 00:02:44;;;;;;;6.22;4.00;;;;;;;14.56;100.00;101054.56;5029037;28;20048;-61
2023/08/09 00:05:12;;;;;;;7.57;3.90;;;;;;;14.51;100.00;101054.06;5030230;28;20524;-61
2023/08/09 00:07:40;;;;;;;6.65;4.07;;;;;;;14.44;100.00;101053.69;5031955;28;20124;-61
2023/08/09 00:10:09;;;;;;;7.85;4.07;;;;;;;14.44;100.00;101052.84;5033095;28;20511;-58
2023/08/09 00:12:37;;;;;;;6.45;3.97;;;;;;;14.44;100.00;101058.13;5032994;28;20107;-57
2023/08/09 00:15:08;;;;;;;6.00;3.53;;;;;;;14.41;100.00;101055.72;5033406;28;20057;-56
2023/08/09 00:17:37;;;;;;;10.50;4.50;;;;;;;14.31;100.00;101059.09;5030513;28;20116;-57
2023/08/09 00:20:11;;;;;;;6.80;4.13;;;;;;;14.28;100.00;101059.34;5029387;28;20799;-57
2023/08/09 00:22:40;;;;;;;7.68;4.07;;;;;;;14.30;100.00;101051.28;5031996;28;20049;-57
2023/08/09 00:25:10;;;;;;;7.25;3.70;;;;;;;14.23;100.00;101058.00;5032873;28;20057;-57
2023/08/09 00:27:39;;;;;;;7.80;4.10;;;;;;;14.21;100.00;101058.13;5032732;28;20073;-57
2023/08/09 00:30:10;;;;;;;6.47;4.30;;;;;;;14.32;100.00;101060.78;5029851;28;20045;-57
2023/08/09 00:32:41;;;;;;;5.57;3.55;;;;;;;14.28;100.00;101056.69;5029180;28;20057;-57
2023/08/09 00:35:10;;;;;;;6.45;3.92;;;;;;;14.24;100.00;101060.53;5032100;28;20061;-57
2023/08/09 00:37:39;;;;;;;6.15;3.72;;;;;;;14.26;100.00;101066.56;5031190;28;20727;-61
2023/08/09 00:40:11;;;;;;;6.13;3.75;;;;;;;14.29;100.00;101074.25;5027916;28;20049;-61
2023/08/09 00:42:40;;;;;;;6.10;3.42;;;;;;;14.25;100.00;101067.53;5028685;28;20069;-61
2023/08/09 00:45:11;;;;;;;5.68;3.22;;;;;;;14.19;100.00;101065.34;5029512;28;20048;-63
2023/08/09 00:47:39;;;;;;;8.10;3.72;;;;;;;14.12;100.00;101061.47;5028484;28;20057;-56
2023/08/09 00:50:08;;;;;;;6.35;3.17;;;;;;;14.14;100.00;101068.34;5029075;28;20523;-57
2023/08/09 00:52:37;;;;;;;5.80;3.15;;;;;;;14.08;100.00;101074.09;5029008;28;20128;-61
2023/08/09 00:55:07;;;;;;;5.00;3.15;;;;;;;13.99;100.00;101075.63;5027537;28;20069;-61
2023/08/09 00:57:36;;;;;;;4.90;2.90;;;;;;;14.05;100.00;101078.78;5029112;28;20041;-61
2023/08/09 01:00:05;;;;;;;5.28;3.22;;;;;;;13.83;100.00;101083.88;5031534;28;20045;-61
2023/08/09 01:02:35;;;;;;;5.85;3.15;;;;;;;13.69;100.00;101079.63;5029046;28;20049;-57
2023/08/09 01:05:06;;;;;;;5.30;3.00;;;;;;;13.66;100.00;101074.59;5029149;28;20048;-57
2023/08/09 01:07:39;;;;;;;5.63;3.10;;;;;;;13.69;100.00;101068.22;5029244;28;20254;-57
2023/08/09 01:10:14;;;;;;;6.35;3.50;;;;;;;13.65;100.00;101078.19;5027840;28;20116;-56
2023/08/09 01:12:59;;;;;;;5.70;2.70;;;;;;;13.61;100.00;101076.72;5028106;28;20057;-61
2023/08/09 01:15:27;;;;;;;5.57;3.10;;;;;;;13.55;100.00;101079.81;5028898;28;20124;-62
2023/08/09 01:17:58;;;;;;;7.15;3.63;;;;;;;13.57;100.00;101074.44;5031548;28;20156;-61
2023/08/09 01:20:27;;;;;;;6.10;3.40;;;;;;;13.49;100.00;101077.63;5029479;28;20128;-57
2023/08/09 01:23:01;;;;;;;6.30;3.70;;;;;;;13.43;100.00;101080.72;5028741;28;20063;-57
2023/08/09 01:25:31;;;;;;;6.82;3.45;;;;;;;13.39;100.00;101084.53;5026721;28;20045;-61
2023/08/09 01:28:03;;;;;;;7.93;4.05;;;;;;;13.43;100.00;101089.50;5028863;28;20049;-61
2023/08/09 01:30:32;;;;;;;9.02;4.60;;;;;;;13.28;100.00;101094.06;5031797;28;20049;-62
2023/08/09 01:33:01;;;;;;;6.60;4.45;;;;;;;13.40;100.00;101088.88;5031741;28;20041;-57
2023/08/09 01:35:35;;;;;;;8.25;4.78;;;;;;;13.28;100.00;101093.22;5027571;28;20571;-60
2023/08/09 01:38:09;;;;;;;7.65;4.85;;;;;;;13.28;100.00;101090.56;5028903;28;20046;-61
2023/08/09 01:40:40;;;;;;;9.10;4.60;;;;;;;13.31;100.00;101085.91;5027876;28;20048;-61
2023/08/09 01:43:08;;;;;;;9.00;5.53;;;;;;;13.21;100.00;101090.19;5031431;28;20137;-61
2023/08/09 01:45:37;;;;;;;11.70;8.30;;;;;;;13.16;100.00;101092.31;5031584;28;20394;-61
2023/08/09 01:48:07;;;;;;;12.80;8.13;;;;;;;13.14;100.00;101099.50;5028704;28;20072;-61
2023/08/09 01:50:40;;;;;;;14.48;10.50;;;;;;;13.11;100.00;101099.72;5026984;28;20045;-61
2023/08/09 01:53:08;;;;;;;17.30;10.88;;;;;;;13.14;100.00;101104.78;5031500;28;20389;-61
2023/08/09 01:55:41;;;;;;;15.75;11.93;;;;;;;13.11;100.00;101097.09;5030068;28;20050;-61
2023/08/09 01:58:11;;;;;;;;;;;;;;;13.11;100.00;101102.38;5031916;28;20069;-61
2023/08/09 02:00:40;;;;;;;16.55;12.27;;;;;;;13.09;100.00;101097.19;5031112;28;19921;-61
2023/08/09 02:03:11;;;;;;;18.55;13.15;;;;;;;13.08;100.00;101103.41;5030456;28;20069;-62
2023/08/09 02:05:40;;;;;;;17.55;12.63;;;;;;;13.15;100.00;101112.59;5027722;28;20061;-62
2023/08/09 02:08:08;;;;;;;18.98;12.43;;;;;;;13.19;100.00;101113.22;5028440;28;20076;-61
2023/08/09 02:10:36;;;;;;;19.88;13.27;;;;;;;13.19;100.00;101107.94;5028747;28;20044;-61
2023/08/09 02:13:06;;;;;;;16.80;12.25;;;;;;;13.23;100.00;101122.59;5028655;28;20044;-61
2023/08/09 02:15:34;;;;;;;17.58;12.82;;;;;;;13.27;100.00;101118.78;5028575;28;20530;-62
2023/08/09 02:18:04;;;;;;;18.65;13.35;;;;;;;13.22;100.00;101128.84;5031244;28;20505;-61
2023/08/09 02:20:33;;;;;;;18.27;13.40;;;;;;;13.19;100.00;101127.25;5031178;28;20111;-62
2023/08/09 02:23:02;;;;;;;22.10;14.23;;;;;;;13.14;100.00;101131.19;5030014;28;20049;-57
2023/08/09 02:25:31;;;;;;;20.65;14.93;;;;;;;13.19;100.00;101134.34;5027891;28;20099;-57
2023/08/09 02:27:59;;;;;;;21.45;14.20;;;;;;;13.26;100.00;101134.75;5028399;28;20057;-57
2023/08/09 02:30:29;;;;;;;20.65;14.32;;;;;;;13.30;100.00;101131.75;5029078;28;20057;-57
2023/08/09 02:32:57;;;;;;;20.65;14.90;;;;;;;13.28;100.00;101131.03;5027348;28;20398;-61
2023/08/09 02:35:25;;;;;;;21.45;14.73;;;;;;;13.29;100.00;101137.16;5029640;28;20076;-57
2023/08/09 02:37:54;;;;;;;23.42;15.68;;;;;;;13.35;100.00;101139.38;5029719;28;20050;-57
2023/08/09 02:40:23;;;;;;;21.95;16.40;;;;;;;13.41;100.00;101141.59;5024806;28;20049;-57
2023/08/09 02:42:51;;;;;;;19.92;14.40;;;;;;;13.45;100.00;101144.88;5028179;28;20061;-56
2023/08/09 02:45:19;;;;;;;18.95;13.95;;;;;;;13.42;100.00;101134.53;5029098;28;20050;-57
2023/08/09 02:47:49;;;;;;;19.27;14.50;;;;;;;13.39;100.00;101137.38;5027424;28;20049;-57
2023/08/09 02:50:17;;;;;;;18.23;14.23;;;;;;;13.43;100.00;101144.13;5027497;28;20865;-57
2023/08/09 02:52:45;;;;;;;18.35;14.60;;;;;;;13.46;100.00;101146.56;5028775;28;20060;-56
2023/08/09 02:55:13;;;;;;;19.30;13.68;;;;;;;13.43;100.00;101141.47;5026241;28;20054;-61
2023/08/09 02:57:41;;;;;;;20.92;14.30;;;;;;;13.40;100.00;101142.53;5028223;28;20282;-57
2023/08/09 03:00:12;;;;;;;18.70;13.30;;;;;;;13.41;100.00;101144.22;5028974;28;20067;-57
2023/08/09 03:02:40;;;;;;;19.02;13.25;;;;;;;13.46;100.00;101141.28;5029759;28;20056;-57
2023/08/09 03:05:10;;;;;;;17.25;12.70;;;;;;;13.55;100.00;101143.22;5030616;28;20046;-61
2023/08/09 03:07:38;;;;;;;19.10;14.23;;;;;;;13.59;100.00;101152.59;5030684;28;20050;-57
2023/08/09 03:10:07;;;;;;;19.20;13.93;;;;;;;13.57;100.00;101145.78;5030130;28;20046;-60
2023/08/09 03:12:36;;;;;;;18.33;13.38;;;;;;;13.59;100.00;101151.78;5031226;28;20099;-57
2023/08/09 03:15:05;;;;;;;23.35;13.98;;;;;;;13.56;100.00;101150.19;5033212;28;20041;-61
2023/08/09 03:17:33;;;;;;;18.52;13.27;;;;;;;13.57;100.00;101162.47;5034124;28;20064;-61
2023/08/09 03:20:08;;;;;;;21.13;14.95;;;;;;;13.53;100.00;101150.44;5033709;28;20065;-61
2023/08/09 03:22:38;;;;;;;21.10;13.98;;;;;;;13.57;100.00;101154.53;5031084;28;20073;-61
2023/08/09 03:25:06;;;;;;;20.48;13.88;;;;;;;13.64;100.00;101150.47;5028733;28;20508;-61
2023/08/09 03:27:35;;;;;;;19.30;13.65;;;;;;;13.68;100.00;101159.88;5032130;28;20077;-61
2023/08/09 03:30:05;;;;;;;24.17;15.57;;;;;;;13.60;100.00;101167.50;5033638;28;20530;-61
2023/08/09 03:32:33;;;;;;;19.70;14.23;;;;;;;13.63;100.00;101169.97;5034125;28;20501;-61
2023/08/09 03:35:01;;;;;;;20.33;13.20;;;;;;;13.67;100.00;101166.13;5033754;28;20120;-61
2023/08/09 03:37:30;;;;;;;22.27;14.90;;;;;;;13.71;100.00;101177.31;5033730;28;20481;-61
2023/08/09 03:40:03;;;;;;;18.98;13.43;;;;;;;13.70;100.00;101175.59;5030490;28;20392;-57
2023/08/09 03:42:31;;;;;;;23.50;14.65;;;;;;;13.65;100.00;101178.59;5029977;28;20124;-57
2023/08/09 03:45:00;;;;;;;21.55;14.80;;;;;;;13.62;100.00;101184.13;5033630;28;20068;-57
2023/08/09 03:47:28;;;;;;;23.58;14.27;;;;;;;13.60;100.00;101191.31;5032773;28;20045;-57
2023/08/09 03:49:56;;;;;;;21.02;14.90;;;;;;;13.59;100.00;101199.34;5030113;28;20049;-56
2023/08/09 03:52:24;;;;;;;21.58;14.45;;;;;;;13.65;100.00;101193.63;5030322;28;20056;-56
2023/08/09 03:54:55;;;;;;;23.05;14.15;;;;;;;13.62;100.00;101192.03;5028762;28;20060;-61
2023/08/09 03:57:24;;;;;;;23.35;13.05;;;;;;;13.66;100.00;101195.28;5030244;28;20129;-57
2023/08/09 03:59:53;;;;;;;21.67;13.77;;;;;;;13.65;100.00;101198.91;5030978;28;20045;-57
2023/08/09 04:02:22;;;;;;;21.55;13.60;;;;;;;13.65;100.00;101194.47;5030141;28;20041;-57
2023/08/09 04:04:50;;;;;;;20.27;13.73;;;;;;;13.68;100.00;101212.72;5029753;28;20099;-57
2023/08/09 04:07:19;;;;;;;26.20;13.55;;;;;;;13.60;100.00;101216.91;5032231;28;20045;-57
2023/08/09 04:09:47;;;;;;;23.40;13.52;;;;;;;13.65;100.00;101215.59;5028534;28;20053;-58
2023/08/09 04:12:15;;;;;;;18.98;12.80;;;;;;;13.61;100.00;101208.84;5030165;28;20052;-58
2023/08/09 04:14:45;;;;;;;21.42;13.20;;;;;;;13.55;100.00;101214.56;5031416;28;20057;-57
2023/08/09 04:17:13;;;;;;;19.52;12.70;;;;;;;13.57;100.00;101212.66;5032506;28;20508;-57
2023/08/09 04:19:41;;;;;;;20.75;12.93;;;;;;;13.60;100.00;101220.38;5031420;28;20497;-57
2023/08/09 04:22:09;;;;;;;22.38;13.00;;;;;;;13.64;100.00;101227.13;5032889;28;20048;-57
2023/08/09 04:24:37;;;;;;;21.38;13.27;;;;;;;13.72;100.00;101231.03;5027996;28;20053;-57
2023/08/09 04:27:06;;;;;;;18.17;12.02;;;;;;;13.71;100.00;101229.34;5028541;28;20060;-57
2023/08/09 04:29:34;;;;;;;18.80;12.40;;;;;;;13.73;100.00;101230.91;5029396;28;20045;-57
2023/08/09 04:32:04;;;;;;;21.85;12.82;;;;;;;13.70;100.00;101228.47;5031590;28;20124;-57
2023/08/09 04:34:32;;;;;;;20.35;13.68;;;;;;;13.68;100.00;101230.41;5030351;28;20046;-61
2023/08/09 04:37:00;;;;;;;19.38;12.10;;;;;;;13.72;100.00;101231.88;5028372;28;20048;-62
2023/08/09 04:39:29;;;;;;;18.98;12.73;;;;;;;13.68;100.00;101239.16;5032501;28;20124;-61
2023/08/09 04:41:57;;;;;;;19.83;13.30;;;;;;;13.71;100.00;101240.75;5032142;28;20538;-60
2023/08/09 04:44:26;;;;;;;21.63;12.98;;;;;;;13.74;100.00;101242.31;5030586;28;20116;-61
2023/08/09 04:46:55;;;;;;;23.20;13.25;;;;;;;13.74;100.00;101239.69;5029271;28;20045;-61
2023/08/09 04:49:25;;;;;;;22.02;13.70;;;;;;;13.82;100.00;101242.59;5032241;28;20052;-61
2023/08/09 04:51:53;;;;;;;23.92;14.38;;;;;;;13.79;100.00;101242.84;5029150;28;20095;-60
2023/08/09 04:54:21;;;;;;;20.10;13.35;;;;;;;13.81;100.00;101252.34;5026834;28;20500;-60
2023/08/09 04:56:50;;;;;;;20.00;13.32;;;;;;;13.85;100.00;101252.94;5032173;28;20049;-60
2023/08/09 04:59:18;;;;;;;18.23;12.63;;;;;;;13.85;100.00;101248.53;5032247;28;20076;-59
2023/08/09 05:01:46;;;;;;;21.48;13.32;;;;;;;13.85;100.00;101250.31;5030825;28;20595;-60
2023/08/09 05:04:16;;;;;;;20.88;12.65;;;;;;;13.89;100.00;101259.69;5030839;28;20472;-60
2023/08/09 05:06:46;;;;;;;19.83;13.30;;;;;;;13.89;100.00;101254.41;5031050;28;20049;-60
2023/08/09 05:09:14;;;;;;;20.45;13.02;;;;;;;13.98;100.00;101260.84;5027805;28;20045;-60
2023/08/09 05:11:42;;;;;;;20.88;13.35;;;;;;;14.00;100.00;101265.06;5027405;28;20579;-61
2023/08/09 05:14:13;;;;;;;22.15;13.88;;;;;;;13.98;100.00;101268.78;5029009;28;20414;-61
2023/08/09 05:16:41;;;;;;;19.83;13.40;;;;;;;13.99;100.00;101273.13;5028694;28;20808;-61
2023/08/09 05:19:09;;;;;;;19.58;12.70;;;;;;;14.00;100.00;101273.00;5029054;28;20068;-61
2023/08/09 05:21:37;;;;;;;20.85;13.60;;;;;;;14.06;100.00;101269.06;5031869;28;20647;-61
2023/08/09 05:24:07;;;;;;;19.85;13.55;;;;;;;14.06;100.00;101276.13;5031158;28;20048;-61
2023/08/09 05:26:35;;;;;;;21.77;14.27;;;;;;;14.16;100.00;101271.88;5027980;28;20068;-64
2023/08/09 05:29:04;;;;;;;21.23;14.15;;;;;;;14.12;100.00;101275.69;5029289;28;20049;-61
2023/08/09 05:31:32;;;;;;;24.38;15.27;;;;;;;14.10;100.00;101267.06;5031766;28;20123;-57
2023/08/09 05:34:01;;;;;;;23.58;15.15;;;;;;;14.12;100.00;101275.69;5031614;28;20053;-60
2023/08/09 05:36:30;;;;;;;25.55;16.05;;;;;;;14.10;100.00;101273.16;5028320;28;20050;-60
2023/08/09 05:38:58;;;;;;;25.85;15.70;;;;;;;14.15;100.00;101271.03;5026754;28;20041;-57
2023/08/09 05:41:27;;;;;;;26.95;17.13;;;;;;;14.04;100.00;101281.53;5027679;28;20068;-57
2023/08/09 05:43:55;;;;;;;27.50;16.50;;;;;;;14.10;100.00;101291.69;5030886;28;20053;-60
2023/08/09 05:46:23;;;;;;;32.45;18.30;;;;;;;14.12;100.00;101289.75;5031140;28;20511;-57
2023/08/09 05:48:52;;;;;;;27.85;17.55;;;;;;;14.19;100.00;101283.09;5028036;28;20049;-57
2023/08/09 05:51:23;;;;;;;30.73;18.02;;;;;;;14.23;100.00;101286.31;5028873;28;20052;-57
2023/08/09 05:53:51;;;;;;;31.60;19.52;;;;;;;14.30;100.00;101284.94;5025514;28;20049;-57
2023/08/09 05:56:19;;;;;;;28.25;18.10;;;;;;;14.37;100.00;101291.47;5028184;28;20103;-57
2023/08/09 05:58:48;;;;;;;28.92;17.77;;;;;;;14.36;100.00;101300.34;5029264;28;20050;-57
2023/08/09 06:01:17;;;;;;;26.02;16.63;;;;;;;14.39;100.00;101303.75;5031231;28;20045;-57
2023/08/09 06:03:45;;;;;;;24.55;16.10;;;;;;;14.45;100.00;101305.91;5029246;28;20054;-59
2023/08/09 06:06:14;;;;;;;28.23;17.40;;;;;;;14.43;100.00;101305.19;5028595;28;20108;-60
2023/08/09 06:08:42;;;;;;;25.35;17.35;;;;;;;14.45;100.00;101313.84;5026298;28;20111;-60
2023/08/09 06:11:10;;;;;;;24.88;16.38;;;;;;;14.48;100.00;101318.91;5028287;28;20533;-61
2023/08/09 06:13:38;;;;;;;26.30;16.58;;;;;;;14.36;100.00;101318.03;5027897;28;20057;-60
2023/08/09 06:16:08;;;;;;;26.83;16.52;;;;;;;14.43;100.00;101316.63;5030731;28;20496;-57
2023/08/09 06:18:37;;;;;;;28.83;16.10;;;;;;;14.43;100.00;101321.06;5030938;28;20116;-57
2023/08/09 06:21:05;;;;;;;28.00;17.08;;;;;;;14.57;100.00;101322.69;5046270;28;20527;-60
2023/08/09 06:23:33;;;;;;;27.27;16.25;;;;;;;14.59;100.00;101332.22;5031151;28;20057;-60
2023/08/09 06:26:04;;;;;;;27.30;16.05;;;;;;;14.62;100.00;101329.31;5030667;28;20045;-60
2023/08/09 06:28:32;;;;;;;25.02;15.10;;;;;;;14.65;100.00;101323.00;5030706;28;20049;-60
2023/08/09 06:31:00;;;;;;;26.33;15.10;;;;;;;14.65;100.00;101331.75;5028932;28;20536;-60
2023/08/09 06:33:31;;;;;;;24.17;14.70;;;;;;;14.66;100.00;101336.09;5027652;28;20501;-60
2023/08/09 06:35:59;;;;;;;23.13;14.00;;;;;;;14.64;100.00;101338.03;5032665;28;20042;-59
2023/08/09 06:38:28;;;;;;;22.67;13.13;;;;;;;14.75;100.00;101339.03;5035064;28;20056;-59
2023/08/09 06:40:56;;;;;;;23.83;13.60;;;;;;;14.86;100.00;101341.69;5034877;28;20778;-60
2023/08/09 06:43:24;;;;;;;21.58;13.10;;;;;;;14.86;100.00;101344.34;5034721;28;20053;-59
2023/08/09 06:45:52;;;;;;;23.52;13.95;;;;;;;14.92;100.00;101349.19;5032002;28;20880;-57
2023/08/09 06:48:21;;;;;;;24.25;13.02;;;;;;;14.96;100.00;101350.66;5031806;28;20135;-57
2023/08/09 06:50:50;;;;;;;22.00;13.80;;;;;;;14.96;100.00;101355.94;5034643;28;20058;-57
2023/08/09 06:53:19;;;;;;;20.75;13.07;;;;;;;15.06;100.00;101368.50;5032439;28;20092;-57
2023/08/09 06:55:47;;;;;;;21.13;12.25;;;;;;;15.16;100.00;101377.41;5030657;28;20053;-57
2023/08/09 06:58:15;;;;;;;22.95;13.57;;;;;;;14.93;100.00;101372.06;5033232;28;20052;-57
2023/08/09 07:00:45;;;;;;;22.77;13.55;;;;;;;15.08;100.00;101375.38;5031143;28;20404;-56
2023/08/09 07:03:13;;;;;;;21.63;13.50;;;;;;;15.12;100.00;101376.81;5031722;28;20049;-56
2023/08/09 07:05:43;;;;;;;23.13;13.82;;;;;;;15.23;100.00;101378.66;5034377;28;20045;-57
2023/08/09 07:08:13;;;;;;;22.65;12.50;;;;;;;15.27;100.00;101382.75;5034527;28;20049;-59
2023/08/09 07:10:41;;;;;;;23.75;13.75;;;;;;;15.37;100.00;101383.72;5034326;28;20171;-59
2023/08/09 07:13:10;;;;;;;23.77;14.15;;;;;;;15.40;100.00;101387.13;5034257;28;20068;-59
2023/08/09 07:15:38;;;;;;;24.00;14.27;;;;;;;15.48;100.00;101377.59;5034144;28;20046;-59
2023/08/09 07:18:06;;;;;;;23.95;14.52;;;;;;;15.53;100.00;101386.03;5034235;28;20053;-59
2023/08/09 07:20:34;;;;;;;22.52;13.65;;;;;;;15.58;100.00;101388.31;5034174;28;20045;-59
2023/08/09 07:23:03;;;;;;;21.98;13.25;;;;;;;15.58;100.00;101390.97;5034149;28;20056;-59
2023/08/09 07:25:32;;;;;;;21.63;13.40;;;;;;;15.65;100.00;101388.69;5033916;28;20053;-59
2023/08/09 07:28:01;;;;;;;21.92;13.88;;;;;;;15.75;100.00;101386.16;5033998;28;20046;-59
2023/08/09 07:30:30;;;;;;;20.55;13.15;;;;;;;15.68;100.00;101388.47;5033848;28;20053;-58
2023/08/09 07:32:58;;;;;;;20.02;12.75;;;;;;;15.77;100.00;101390.38;5034165;28;20103;-59
2023/08/09 07:35:26;;;;;;;21.50;14.10;;;;;;;15.88;100.00;101390.44;5033970;28;20137;-56
2023/08/09 07:37:54;;;;;;;20.90;12.40;;;;;;;15.84;100.00;101391.63;5034097;28;20053;-56
2023/08/09 07:40:22;;;;;;;19.25;12.80;;;;;;;15.94;100.00;101399.72;5033953;28;20049;-57
2023/08/09 07:42:55;;;;;;;19.63;13.63;;;;;;;15.93;100.00;101398.00;5032779;28;20050;-57
2023/08/09 07:45:23;;;;;;;18.90;13.13;;;;;;;15.93;100.00;101402.47;5030690;28;20037;-56
2023/08/09 07:47:52;;;;;;;20.05;13.63;;;;;;;16.08;100.00;101395.94;5029061;28;20068;-56
2023/08/09 07:50:20;;;;;;;21.95;12.55;;;;;;;16.13;100.00;101399.09;5032572;28;20489;-56
2023/08/09 07:52:51;;;;;;;18.00;12.43;;;;;;;16.11;100.00;101411.63;5033422;28;20041;-56
2023/08/09 07:55:20;;;;;;;17.85;11.80;;;;;;;16.32;100.00;101408.19;5033197;28;20041;-57
2023/08/09 07:57:48;;;;;;;17.88;11.30;;;;;;;16.47;100.00;101414.09;5033306;28;20107;-57
2023/08/09 08:00:18;;;;;;;20.00;12.25;;;;;;;16.41;100.00;101412.78;5031651;28;20037;-57
2023/08/09 08:02:48;;;;;;;17.55;12.07;;;;;;;16.37;100.00;101422.81;5030249;28;20144;-59
2023/08/09 08:05:17;;;;;;;17.33;11.90;;;;;;;16.52;100.00;101417.22;5032376;28;20092;-59
2023/08/09 08:07:45;;;;;;;19.17;11.60;;;;;;;16.37;100.00;101417.50;5029945;28;20396;-60
2023/08/09 08:10:16;;;;;;;16.38;11.23;;;;;;;16.60;100.00;101421.91;5029371;28;20065;-59
2023/08/09 08:12:48;;;;;;;17.30;11.48;;;;;;;16.59;100.00;101423.69;5030904;28;20052;-60
2023/08/09 08:15:18;;;;;;;19.45;12.18;;;;;;;16.68;100.00;101420.31;5029732;28;20051;-59
2023/08/09 08:17:51;;;;;;;17.70;11.82;;;;;;;16.77;100.00;101423.16;5032512;28;20054;-57
2023/08/09 08:20:20;;;;;;;18.95;12.77;;;;;;;16.91;100.00;101420.25;5031367;28;20504;-56
2023/08/09 08:22:49;;;;;;;16.17;10.70;;;;;;;16.90;100.00;101416.72;5031073;28;20069;-57
2023/08/09 08:25:19;;;;;;;15.90;10.75;;;;;;;17.06;100.00;101418.97;5032357;28;20042;-57
2023/08/09 08:27:48;;;;;;;15.20;10.98;;;;;;;17.23;100.00;101425.53;5032527;28;20069;-57
2023/08/09 08:30:19;;;;;;;15.52;10.10;;;;;;;17.43;100.00;101435.47;5030299;28;20073;-56
2023/08/09 08:32:49;;;;;;;17.95;10.07;;;;;;;17.44;100.00;101443.31;5029835;28;20064;-56
2023/08/09 08:35:20;;;;;;;13.95;9.30;;;;;;;17.50;100.00;101445.41;5032842;28;20049;-57
2023/08/09 08:37:50;;;;;;;11.87;9.07;;;;;;;17.55;100.00;101453.03;5031275;28;20092;-57
2023/08/09 08:40:20;;;;;;;14.45;9.45;;;;;;;17.77;100.00;101461.81;5028492;28;20049;-57
2023/08/09 08:42:50;;;;;;;12.95;9.63;;;;;;;18.04;100.00;101459.44;5029527;28;20115;-57
2023/08/09 08:45:20;;;;;;;12.95;9.50;;;;;;;18.02;100.00;101469.38;5032509;28;20045;-57
2023/08/09 08:47:49;;;;;;;13.43;9.07;;;;;;;18.13;100.00;101470.25;5027796;28;20491;-57
2023/08/09 08:50:19;;;;;;;11.05;8.18;;;;;;;18.30;100.00;101466.97;5030840;28;20049;-59
2023/08/09 08:52:48;;;;;;;11.88;8.15;;;;;;;18.42;100.00;101478.38;5031882;28;20128;-58
2023/08/09 08:55:17;;;;;;;11.77;7.78;;;;;;;18.53;100.00;101477.41;5032254;28;20038;-58
2023/08/09 08:57:47;;;;;;;11.43;7.50;;;;;;;18.57;100.00;101473.50;5031993;28;20037;-56
2023/08/09 09:00:17;;;;;;;9.65;6.57;;;;;;;18.65;100.00;101481.63;5031667;28;20053;-55
2023/08/09 09:02:56;;;;;;;11.70;7.40;;;;;;;18.80;100.00;101482.09;5031684;28;20076;-57
2023/08/09 09:05:25;;;;;;;11.77;7.72;;;;;;;19.02;100.00;101481.00;5029330;28;20045;-58
2023/08/09 09:07:56;;;;;;;11.70;6.80;;;;;;;19.31;100.00;101487.31;5028100;28;20133;-58
2023/08/09 09:10:25;;;;;;;10.23;6.22;;;;;;;19.23;100.00;101480.84;5032103;28;20052;-59
2023/08/09 09:12:55;;;;;;;12.20;6.13;;;;;;;19.21;100.00;101484.63;5031050;28;20041;-58
2023/08/09 09:15:25;;;;;;;9.88;5.60;;;;;;;19.41;100.00;101493.47;5029258;28;20041;-55
2023/08/09 09:17:54;;;;;;;11.80;5.50;;;;;;;19.65;100.00;101476.16;5029064;28;20037;-55
2023/08/09 09:20:29;;;;;;;8.50;4.65;;;;;;;19.70;100.00;101487.22;5029310;28;20049;-57
2023/08/09 09:22:59;;;;;;;8.30;4.63;;;;;;;19.83;100.00;101495.78;5029219;28;20103;-58
2023/08/09 09:25:27;;;;;;;8.27;4.57;;;;;;;19.64;100.00;101494.00;5027489;28;20377;-59
2023/08/09 09:27:57;;;;;;;8.43;4.43;;;;;;;19.91;100.00;101487.06;5030448;28;20046;-58
2023/08/09 09:30:31;;;;;;;7.22;4.10;;;;;;;20.25;100.00;101481.19;5030542;28;20100;-58
2023/08/09 09:33:03;;;;;;;9.27;3.97;;;;;;;20.30;100.00;101473.56;5028957;28;20076;-58
2023/08/09 09:35:34;;;;;;;6.07;3.10;;;;;;;20.60;100.00;101479.56;5029247;28;20128;-59
2023/08/09 09:38:04;;;;;;;7.85;3.78;;;;;;;20.71;100.00;101484.72;5031970;28;20498;-58
2023/08/09 09:40:36;;;;;;;7.18;3.90;;;;;;;21.14;100.00;101478.78;5029563;28;20049;-59
2023/08/09 09:43:06;;;;;;;7.80;3.10;;;;;;;20.99;100.00;101478.47;5029499;28;20398;-58
2023/08/09 09:45:36;;;;;;;7.20;3.33;;;;;;;21.06;100.00;101483.03;5029554;28;20053;-58
2023/08/09 09:48:17;;;;;;;6.32;2.97;;;;;;;21.22;100.00;101485.03;5029227;28;20042;-59
2023/08/09 09:50:45;;;;;;;6.07;2.70;;;;;;;21.26;100.00;101488.25;5030058;28;20053;-58
2023/08/09 09:53:15;;;;;;;5.88;2.70;;;;;;;21.35;100.00;101481.97;5029633;28;20079;-58
2023/08/09 09:55:44;;;;;;;6.82;3.40;;;;;;;21.28;100.00;101483.56;5027816;28;20054;-58
2023/08/09 09:58:16;;;;;;;6.03;2.80;;;;;;;21.39;100.00;101475.31;5032078;28;20049;-58
2023/08/09 10:00:48;;;;;;;5.40;2.47;;;;;;;21.52;100.00;101474.06;5030735;28;20052;-58
2023/08/09 10:03:22;;;;;;;6.88;2.80;;;;;;;21.70;100.00;101471.34;5029124;28;20447;-56
2023/08/09 10:05:54;;;;;;;4.30;2.50;;;;;;;21.45;100.00;101474.66;5030687;28;20069;-56
2023/08/09 10:08:27;;;;;;;6.00;3.03;;;;;;;21.56;100.00;101468.25;5028276;28;20053;-56
2023/08/09 10:10:56;;;;;;;;;;;;;;;21.95;100.00;101466.97;5031592;28;20049;-56
2023/08/09 10:13:26;;;;;;;6.93;3.00;;;;;;;21.97;100.00;101456.94;5032004;28;19929;-56
2023/08/09 10:15:59;;;;;;;7.82;2.83;;;;;;;22.16;100.00;101466.56;5026018;28;20048;-56
2023/08/09 10:18:34;;;;;;;6.05;2.40;;;;;;;22.25;100.00;101470.09;5032854;28;20408;-56
2023/08/09 10:21:03;;;;;;;5.88;2.40;;;;;;;22.01;100.00;101469.00;5032752;28;20080;-57
2023/08/09 10:23:32;;;;;;;4.82;2.22;;;;;;;21.64;100.00;101467.47;5031179;28;20491;-58
2023/08/09 10:26:00;;;;;;;5.60;2.55;;;;;;;21.78;100.00;101472.22;5032660;28;20441;-58
2023/08/09 10:28:50;;;;;;;3.00;1.90;;;;;;;21.66;100.00;101476.16;5032521;28;20095;-58
2023/08/09 10:31:47;;;;;;;4.32;1.77;;;;;;;21.52;100.00;101480.25;5032071;28;20071;-58
2023/08/09 10:34:40;;;;;;;3.90;1.70;;;;;;;21.59;100.00;101484.00;5030844;28;20049;-58
2023/08/09 10:37:12;;;;;;;4.95;1.90;;;;;;;21.79;100.00;101483.78;5032545;28;20033;-58
2023/08/09 10:39:42;;;;;;;6.05;2.25;;;;;;;21.56;100.00;101488.84;5030534;28;20049;-57
2023/08/09 10:42:11;;;;;;;6.03;2.00;;;;;;;21.39;100.00;101486.00;5032010;28;20107;-58
2023/08/09 10:44:41;;;;;;;5.43;1.70;;;;;;;21.59;100.00;101477.81;5030410;28;20420;-58
2023/08/09 10:47:12;;;;;;;4.68;1.92;;;;;;;21.64;100.00;101488.88;5032048;28;20378;-56
2023/08/09 10:50:10;;;;;;;4.03;1.80;;;;;;;21.54;100.00;101482.78;5031419;28;20580;-56
2023/08/09 10:52:40;;;;;;;5.85;2.40;;;;;;;21.69;100.00;101475.88;5032143;28;20080;-56
2023/08/09 10:55:31;;;;;;;6.25;2.35;;;;;;;21.77;100.00;101477.75;5029068;28;20505;-57
2023/08/09 10:58:01;;;;;;;5.63;2.10;;;;;;;21.75;100.00;101488.63;5032095;28;20046;-58
2023/08/09 11:00:39;;;;;;;;;;;;;;;21.53;100.00;101495.34;5031948;28;20510;-58
2023/08/09 11:03:08;;;;;;;4.47;1.95;;;;;;;21.49;100.00;101488.59;5031511;28;19921;-58
2023/08/09 11:05:38;;;;;;;3.83;1.90;;;;;;;21.53;100.00;101489.97;5030725;28;20401;-58
2023/08/09 11:08:13;;;;;;;5.53;2.20;;;;;;;21.49;100.00;101491.25;5031651;28;20045;-58
2023/08/09 11:10:42;;;;;;;5.05;1.90;;;;;;;21.81;100.00;101486.31;5029659;28;20531;-58
2023/08/09 11:13:12;;;;;;;5.85;2.28;;;;;;;21.60;100.00;101485.69;5030396;28;20957;-58
2023/08/09 11:15:44;;;;;;;6.15;1.92;;;;;;;21.83;100.00;101481.63;5016454;28;20053;-56
2023/08/09 11:18:13;;;;;;;5.40;2.38;;;;;;;21.92;100.00;101491.38;5011096;28;20588;-56